Time;durP1;ratioP1;P1;durP2;ratioP2;P2;SDS_P1;SDS_P2;PMS_P1;PMS_P2;Temp;Humidity;BMP_temperature;BMP_pressure;BME280_temperature;BME280_humidity;BME280_pressure;Samples;Min_cycle;Max_cycle;Signal;HPM_P1;HPM_P2
2024/02/17 00:05:26;;;;;;;;;;;11.60;99.90;;;;;;4960825;28;19981;-89
2024/02/17 00:34:42;;;;;;;;;;;11.70;99.90;;;;;;5008888;28;19939;-90
2024/02/17 00:40:31;;;;;;;;;;;11.80;99.90;;;;;;5044492;28;19941;-90
2024/02/17 00:42:58;;;;;;;;;;;11.80;99.90;;;;;;5062378;22;19961;-88
2024/02/17 00:45:24;;;;;;;;;;;11.60;99.90;;;;;;5056716;28;19989;-88
2024/02/17 00:47:52;;;;;;;;;;;11.70;99.90;;;;;;5055400;28;19955;-86
2024/02/17 00:50:20;;;;;;;;;;;11.70;99.90;;;;;;5050998;28;20009;-87
2024/02/17 00:52:49;;;;;;;;;;;11.70;99.90;;;;;;5053092;28;19922;-87
2024/02/17 00:55:16;;;;;;;;;;;11.60;99.90;;;;;;5053801;28;19946;-87
2024/02/17 00:57:42;;;;;;;;;;;11.50;99.90;;;;;;5048590;28;19950;-88
2024/02/17 01:00:09;;;;;;;;;;;11.50;99.90;;;;;;5048485;28;19985;-88
2024/02/17 01:02:36;;;;;;;;;;;11.50;99.90;;;;;;5055551;28;19959;-86
2024/02/17 01:05:03;;;;;;;;;;;11.60;99.90;;;;;;5059690;28;19998;-87
2024/02/17 01:07:31;;;;;;;;;;;11.50;99.90;;;;;;5060332;28;19959;-86
2024/02/17 01:09:58;;;;;;;;;;;11.40;99.90;;;;;;5058707;28;19950;-87
2024/02/17 01:12:25;;;;;;;;;;;11.40;99.90;;;;;;5055917;28;19982;-88
2024/02/17 01:14:51;;;;;;;;;;;11.40;99.90;;;;;;5052931;28;19951;-88
2024/02/17 01:17:18;;;;;;;;;;;11.40;99.90;;;;;;5047277;28;19940;-87
2024/02/17 01:19:45;;;;;;;;;;;11.20;99.90;;;;;;5046715;28;19955;-87
2024/02/17 01:22:12;;;;;;;;;;;11.30;99.90;;;;;;5047000;28;19995;-88
2024/02/17 01:24:42;;;;;;;;;;;11.30;99.90;;;;;;5049545;28;19940;-87
2024/02/17 01:27:08;;;;;;;;;;;11.30;99.90;;;;;;5050226;28;19921;-87
2024/02/17 01:29:35;;;;;;;;;;;11.30;99.90;;;;;;5057164;28;19928;-85
2024/02/17 01:32:02;;;;;;;;;;;11.30;99.90;;;;;;5056507;28;20317;-87
2024/02/17 01:34:29;;;;;;;;;;;11.30;99.90;;;;;;5056085;28;19978;-87
2024/02/17 01:36:56;;;;;;;;;;;11.20;99.90;;;;;;5050582;28;19992;-88
2024/02/17 01:39:23;;;;;;;;;;;11.30;99.90;;;;;;5046326;28;19972;-88
2024/02/17 01:41:50;;;;;;;;;;;;;;;;;;5045933;28;19999;-87
2024/02/17 01:44:17;;;;;;;;;;;;;;;;;;5045572;28;19950;-87
2024/02/17 01:46:44;;;;;;;;;;;;;;;;;;5047086;28;19928;-87
2024/02/17 01:49:12;;;;;;;;;;;11.40;26.40;;;;;;5056672;28;19941;-88
2024/02/17 01:51:40;;;;;;;;;;;;;;;;;;5045188;28;20473;-87
2024/02/17 01:54:07;;;;;;;;;;;;;;;;;;5052002;28;19941;-87
2024/02/17 01:56:34;;;;;;;;;;;;;;;;;;5058252;28;19925;-88
2024/02/17 01:59:02;;;;;;;;;;;;;;;;;;5050385;28;19955;-87
2024/02/17 02:01:29;;;;;;;;;;;;;;;;;;5047632;28;20011;-86
2024/02/17 02:03:56;;;;;;;;;;;;;;;;;;5048486;28;19965;-86
2024/02/17 02:06:24;;;;;;;;;;;;;;;;;;5048009;28;20024;-87
2024/02/17 02:08:51;;;;;;;;;;;;;;;;;;5051312;28;19988;-87
2024/02/17 02:11:18;;;;;;;;;;;;;;;;;;5054662;28;19943;-86
2024/02/17 02:13:46;;;;;;;;;;;11.30;1.00;;;;;;5049669;28;20422;-87
2024/02/17 02:16:14;;;;;;;;;;;11.30;1.00;;;;;;5051679;28;19961;-87
2024/02/17 02:18:41;;;;;;;;;;;11.10;1.00;;;;;;5044756;28;19968;-87
2024/02/17 02:21:08;;;;;;;;;;;11.10;1.00;;;;;;5045261;28;19966;-88
2024/02/17 02:23:35;;;;;;;;;;;;;;;;;;5046883;28;19968;-87
2024/02/17 02:26:02;;;;;;;;;;;;;;;;;;5051809;28;19984;-87
2024/02/17 02:28:30;;;;;;;;;;;;;;;;;;5057476;28;19921;-86
2024/02/17 02:30:57;;;;;;;;;;;;;;;;;;5053941;28;19967;-86
2024/02/17 02:33:24;;;;;;;;;;;;;;;;;;5046821;28;19961;-86
2024/02/17 02:35:51;;;;;;;;;;;;;;;;;;5047086;28;19939;-87
2024/02/17 02:38:18;;;;;;;;;;;;;;;;;;5046778;28;19944;-87
2024/02/17 02:40:45;;;;;;;;;;;;;;;;;;5049707;28;19999;-86
2024/02/17 02:43:12;;;;;;;;;;;;;;;;;;5054919;28;19921;-86
2024/02/17 02:45:39;;;;;;;;;;;;;;;;;;5048088;28;19975;-87
2024/02/17 02:48:06;;;;;;;;;;;;;;;;;;5046998;28;19963;-87
2024/02/17 02:50:33;;;;;;;;;;;;;;;;;;5050569;28;19945;-87
2024/02/17 02:53:00;;;;;;;;;;;;;;;;;;5053242;28;19959;-88
2024/02/17 02:55:27;;;;;;;;;;;;;;;;;;5048398;28;19943;-87
2024/02/17 02:57:54;;;;;;;;;;;;;;;;;;5050646;28;19955;-87
2024/02/17 03:00:21;;;;;;;;;;;;;;;;;;5053973;28;19945;-87
2024/02/17 03:02:48;;;;;;;;;;;;;;;;;;5051500;28;19967;-86
2024/02/17 03:05:15;;;;;;;;;;;;;;;;;;5048867;28;19921;-86
2024/02/17 03:07:43;;;;;;;;;;;;;;;;;;5047635;28;20452;-87
2024/02/17 03:10:10;;;;;;;;;;;;;;;;;;5054009;28;20374;-87
2024/02/17 03:12:37;;;;;;;;;;;;;;;;;;5052084;28;19965;-86
2024/02/17 03:15:04;;;;;;;;;;;;;;;;;;5053780;28;19943;-88
2024/02/17 03:17:31;;;;;;;;;;;;;;;;;;5050562;28;20001;-87
2024/02/17 03:19:58;;;;;;;;;;;;;;;;;;5050495;28;19939;-87
2024/02/17 03:25:10;;;;;;;;;;;;;;;;;;5051291;28;19927;-87
2024/02/17 03:27:37;;;;;;;;;;;;;;;;;;5051023;28;19942;-87
2024/02/17 03:30:05;;;;;;;;;;;;;;;;;;5056550;28;19925;-87
2024/02/17 03:32:32;;;;;;;;;;;;;;;;;;5050480;28;19959;-86
2024/02/17 03:34:59;;;;;;;;;;;;;;;;;;5050830;28;19942;-86
2024/02/17 03:37:26;;;;;;;;;;;;;;;;;;5050799;28;19921;-87
2024/02/17 03:39:53;;;;;;;;;;;;;;;;;;5055819;28;19930;-86
2024/02/17 03:42:20;;;;;;;;;;;;;;;;;;5054943;28;19960;-87
2024/02/17 03:44:47;;;;;;;;;;;;;;;;;;5053223;28;19938;-88
2024/02/17 03:47:14;;;;;;;;;;;;;;;;;;5049904;28;19967;-88
2024/02/17 03:49:41;;;;;;;;;;;;;;;;;;5054581;28;19951;-87
2024/02/17 03:52:08;;;;;;;;;;;;;;;;;;5061001;28;19939;-88
2024/02/17 03:54:34;;;;;;;;;;;;;;;;;;5058140;28;19957;-87
2024/02/17 03:57:02;;;;;;;;;;;;;;;;;;5060540;28;19950;-87
2024/02/17 03:59:29;;;;;;;;;;;;;;;;;;5059035;28;19939;-88
2024/02/17 04:01:59;;;;;;;;;;;;;;;;;;5050757;28;19939;-87
2024/02/17 04:04:26;;;;;;;;;;;;;;;;;;5054352;28;19954;-87
2024/02/17 04:06:53;;;;;;;;;;;;;;;;;;5055655;28;19978;-87
2024/02/17 04:09:20;;;;;;;;;;;;;;;;;;5057736;28;19992;-87
2024/02/17 04:11:46;;;;;;;;;;;;;;;;;;5061627;28;19928;-87
2024/02/17 04:14:13;;;;;;;;;;;;;;;;;;5061575;28;19953;-85
2024/02/17 04:16:40;;;;;;;;;;;;;;;;;;5056656;28;19948;-85
2024/02/17 04:19:07;;;;;;;;;;;;;;;;;;5061650;28;19939;-86
2024/02/17 04:21:34;;;;;;;;;;;;;;;;;;5053939;28;19931;-87
2024/02/17 04:24:02;;;;;;;;;;;;;;;;;;5046893;28;19952;-87
2024/02/17 04:26:30;;;;;;;;;;;;;;;;;;5048310;28;19941;-85
2024/02/17 04:28:57;;;;;;;;;;;;;;;;;;5049024;28;19928;-87
2024/02/17 04:31:24;;;;;;;;;;;;;;;;;;5047800;28;20332;-87
2024/02/17 04:33:52;;;;;;;;;;;10.70;72.80;;;;;;5049113;28;20012;-86
2024/02/17 04:36:19;;;;;;;;;;;10.70;58.30;;;;;;5049720;28;19921;-88
2024/02/17 04:38:46;;;;;;;;;;;10.60;57.70;;;;;;5057265;28;19951;-88
2024/02/17 04:41:12;;;;;;;;;;;10.60;92.90;;;;;;5055113;28;19939;-87
2024/02/17 04:43:39;;;;;;;;;;;10.60;72.50;;;;;;5049429;28;19968;-88
2024/02/17 04:46:06;;;;;;;;;;;10.50;64.40;;;;;;5041197;28;20040;-88
2024/02/17 04:48:32;;;;;;;;;;;10.50;68.50;;;;;;5039797;28;20405;-88
2024/02/17 04:51:00;;;;;;;;;;;10.60;53.80;;;;;;5043612;28;19961;-88
2024/02/17 04:53:27;;;;;;;;;;;10.70;45.80;;;;;;5047102;28;19928;-87
2024/02/17 04:55:54;;;;;;;;;;;10.50;32.80;;;;;;5048187;28;19921;-86
2024/02/17 04:58:21;;;;;;;;;;;10.50;37.70;;;;;;5048845;28;20033;-86
2024/02/17 05:00:48;;;;;;;;;;;10.30;31.00;;;;;;5047276;28;19984;-86
2024/02/17 05:03:15;;;;;;;;;;;10.40;30.40;;;;;;5048585;28;19921;-86
2024/02/17 05:05:41;;;;;;;;;;;10.30;19.40;;;;;;5049477;28;19937;-85
2024/02/17 05:08:09;;;;;;;;;;;10.20;20.20;;;;;;5058168;28;19921;-86
2024/02/17 05:10:38;;;;;;;;;;;10.20;33.40;;;;;;5059824;28;19962;-86
2024/02/17 05:13:05;;;;;;;;;;;10.40;20.00;;;;;;5052365;28;19959;-86
2024/02/17 05:15:31;;;;;;;;;;;10.40;1.00;;;;;;5051837;28;19959;-87
2024/02/17 05:17:58;;;;;;;;;;;10.30;1.00;;;;;;5052326;28;19983;-87
2024/02/17 05:20:25;;;;;;;;;;;10.30;1.00;;;;;;5051835;28;20006;-87
2024/02/17 05:22:51;;;;;;;;;;;10.30;1.00;;;;;;5051861;28;19960;-86
2024/02/17 05:25:19;;;;;;;;;;;10.20;1.00;;;;;;5053315;28;19972;-87
2024/02/17 05:27:46;;;;;;;;;;;10.40;1.00;;;;;;5051672;28;19921;-87
2024/02/17 05:30:14;;;;;;;;;;;10.20;1.00;;;;;;5060291;28;19946;-87
2024/02/17 05:32:41;;;;;;;;;;;10.10;1.00;;;;;;5059989;28;19955;-87
2024/02/17 05:35:08;;;;;;;;;;;10.10;1.00;;;;;;5058828;28;19930;-86
2024/02/17 05:37:35;;;;;;;;;;;10.00;1.00;;;;;;5057755;28;19983;-87
2024/02/17 05:40:05;;;;;;;;;;;10.00;1.00;;;;;;5058500;28;20007;-87
2024/02/17 05:42:34;;;;;;;;;;;9.90;1.00;;;;;;5052625;28;19959;-87
2024/02/17 05:45:02;;;;;;;;;;;10.00;1.00;;;;;;5056821;28;19940;-86
2024/02/17 05:47:29;;;;;;;;;;;9.90;1.00;;;;;;5059584;28;19931;-86
2024/02/17 05:49:56;;;;;;;;;;;10.00;1.00;;;;;;5050655;28;19939;-87
2024/02/17 05:52:23;;;;;;;;;;;9.90;1.00;;;;;;5047983;28;19966;-86
2024/02/17 05:54:49;;;;;;;;;;;10.00;1.00;;;;;;5046113;28;20031;-86
2024/02/17 05:57:16;;;;;;;;;;;9.90;1.00;;;;;;5046775;28;19921;-86
2024/02/17 05:59:44;;;;;;;;;;;9.90;1.00;;;;;;5045632;28;20363;-87
2024/02/17 06:02:11;;;;;;;;;;;9.90;1.00;;;;;;5047170;28;20009;-87
2024/02/17 06:04:38;;;;;;;;;;;9.80;1.00;;;;;;5050697;28;19956;-88
2024/02/17 06:07:05;;;;;;;;;;;9.80;1.00;;;;;;5042353;28;19993;-87
2024/02/17 06:09:31;;;;;;;;;;;9.80;1.00;;;;;;5048830;28;20004;-88
2024/02/17 06:11:58;;;;;;;;;;;9.60;1.00;;;;;;5049070;28;20365;-86
2024/02/17 06:14:24;;;;;;;;;;;9.60;1.00;;;;;;5047033;28;19973;-87
2024/02/17 06:16:53;;;;;;;;;;;9.80;99.90;;;;;;5047868;28;19984;-87
2024/02/17 06:22:22;;;;;;;;;;;9.90;99.90;;;;;;5046795;28;19934;-87
2024/02/17 06:24:59;;;;;;;;;;;10.10;99.90;;;;;;5048736;28;19921;-87
2024/02/17 06:27:26;;;;;;;;;;;10.00;99.90;;;;;;5057496;28;19905;-87
2024/02/17 06:29:53;;;;;;;;;;;10.00;99.90;;;;;;5050436;28;20404;-87
2024/02/17 06:32:21;;;;;;;;;;;10.00;99.90;;;;;;5048421;28;20003;-87
2024/02/17 06:34:48;;;;;;;;;;;10.00;99.90;;;;;;5051981;28;19952;-87
2024/02/17 06:37:15;;;;;;;;;;;10.00;99.90;;;;;;5049441;28;20033;-88
2024/02/17 06:39:42;;;;;;;;;;;10.00;99.90;;;;;;5046087;28;19948;-86
2024/02/17 06:44:50;;;;;;;;;;;10.40;99.90;;;;;;5054469;23;19977;-87
2024/02/17 06:47:19;;;;;;;;;;;9.90;99.90;;;;;;5054140;28;19962;-87
2024/02/17 06:49:46;;;;;;;;;;;;;;;;;;5043429;28;20282;-87
2024/02/17 06:52:14;;;;;;;;;;;;;;;;;;5042112;28;20006;-86
2024/02/17 06:54:45;;;;;;;;;;;9.90;99.90;;;;;;5041036;28;20534;-86
2024/02/17 06:57:12;;;;;;;;;;;10.50;99.90;;;;;;5043865;28;19953;-87
2024/02/17 06:59:38;;;;;;;;;;;10.00;99.90;;;;;;5044606;28;19921;-86
2024/02/17 07:02:05;;;;;;;;;;;10.00;99.90;;;;;;5042286;28;19921;-86
2024/02/17 07:04:32;;;;;;;;;;;10.00;99.90;;;;;;5042752;28;19981;-86
2024/02/17 07:06:59;;;;;;;;;;;10.00;99.90;;;;;;5043172;28;20007;-86
2024/02/17 07:09:26;;;;;;;;;;;10.00;99.90;;;;;;5042345;28;19998;-85
2024/02/17 07:11:53;;;;;;;;;;;;;;;;;;5041166;28;20344;-87
2024/02/17 07:14:20;;;;;;;;;;;;;;;;;;5042700;28;19921;-86
2024/02/17 07:16:48;;;;;;;;;;;;;;;;;;5046951;28;19937;-86
2024/02/17 07:19:15;;;;;;;;;;;;;;;;;;5040382;28;19978;-87
2024/02/17 07:21:43;;;;;;;;;;;;;;;;;;5041442;28;19961;-86
2024/02/17 07:24:11;;;;;;;;;;;;;;;;;;5040140;28;19968;-87
2024/02/17 07:26:38;;;;;;;;;;;;;;;;;;5040441;28;19921;-87
2024/02/17 07:29:09;;;;;;;;;;;;;;;;;;5041468;28;19994;-87
2024/02/17 07:31:37;;;;;;;;;;;;;;;;;;5040877;28;19961;-85
2024/02/17 07:34:09;;;;;;;;;;;9.80;99.90;;;;;;5039670;28;20003;-86
2024/02/17 07:36:36;;;;;;;;;;;9.90;99.90;;;;;;5040687;28;19928;-88
2024/02/17 07:39:05;;;;;;;;;;;10.00;99.90;;;;;;5039635;28;19937;-87
2024/02/17 07:41:32;;;;;;;;;;;10.00;99.90;;;;;;5039122;28;19938;-86
2024/02/17 07:43:59;;;;;;;;;;;10.00;99.90;;;;;;5039866;28;19959;-86
2024/02/17 07:46:26;;;;;;;;;;;10.10;99.90;;;;;;5051732;28;19921;-86
2024/02/17 07:48:53;;;;;;;;;;;10.00;74.40;;;;;;5047075;28;19962;-86
2024/02/17 07:51:22;;;;;;;;;;;10.00;49.70;;;;;;5040981;28;19946;-86
2024/02/17 07:53:48;;;;;;;;;;;10.20;82.90;;;;;;5046037;28;19932;-86
2024/02/17 07:56:15;;;;;;;;;;;10.10;58.90;;;;;;5051822;28;19944;-86
2024/02/17 07:58:42;;;;;;;;;;;9.90;63.60;;;;;;5051035;28;20436;-87
2024/02/17 08:01:09;;;;;;;;;;;10.00;44.70;;;;;;5049764;28;19962;-87
2024/02/17 08:03:35;;;;;;;;;;;10.10;12.00;;;;;;5049352;28;20007;-86
2024/02/17 08:06:02;;;;;;;;;;;10.10;1.00;;;;;;5059781;28;19913;-86
2024/02/17 08:08:32;;;;;;;;;;;10.10;1.00;;;;;;5054194;28;19921;-87
2024/02/17 08:10:59;;;;;;;;;;;10.20;1.00;;;;;;5049883;28;19939;-87
2024/02/17 08:13:27;;;;;;;;;;;10.20;1.00;;;;;;5049920;28;19991;-86
2024/02/17 08:15:54;;;;;;;;;;;10.00;1.00;;;;;;5053840;28;19948;-87
2024/02/17 08:18:21;;;;;;;;;;;10.30;1.00;;;;;;5056112;28;19921;-87
2024/02/17 08:20:48;;;;;;;;;;;10.20;1.00;;;;;;5049837;28;19972;-86
2024/02/17 08:23:15;;;;;;;;;;;10.30;1.00;;;;;;5052166;28;20023;-88
2024/02/17 08:25:46;;;;;;;;;;;9.80;1.00;;;;;;5048220;28;19956;-87
2024/02/17 08:28:15;;;;;;;;;;;10.20;1.00;;;;;;5049541;28;19997;-87
2024/02/17 08:30:48;;;;;;;;;;;10.10;1.00;;;;;;5047984;28;19921;-88
2024/02/17 08:33:21;;;;;;;;;;;10.30;1.00;;;;;;5048386;28;20375;-88
2024/02/17 08:35:49;;;;;;;;;;;9.80;99.90;;;;;;5048794;28;19921;-86
2024/02/17 08:38:16;;;;;;;;;;;10.40;1.00;;;;;;5057124;28;19929;-88
2024/02/17 08:40:45;;;;;;;;;;;10.40;99.90;;;;;;5056621;28;19995;-88
2024/02/17 08:43:14;;;;;;;;;;;10.40;99.90;;;;;;5051932;28;20006;-87
2024/02/17 08:45:42;;;;;;;;;;;10.50;99.90;;;;;;5048415;28;19964;-86
2024/02/17 08:48:11;;;;;;;;;;;10.60;1.00;;;;;;5047333;28;20094;-88
2024/02/17 08:50:38;;;;;;;;;;;10.60;99.90;;;;;;5050894;28;19974;-87
2024/02/17 08:53:05;;;;;;;;;;;10.50;99.90;;;;;;5057823;28;19928;-86
2024/02/17 08:55:36;;;;;;;;;;;10.60;99.90;;;;;;5059239;28;19932;-86
2024/02/17 08:58:05;;;;;;;;;;;10.60;99.90;;;;;;5051918;28;19963;-86
2024/02/17 09:00:35;;;;;;;;;;;10.60;99.90;;;;;;5047823;28;19964;-87
2024/02/17 09:03:04;;;;;;;;;;;10.50;41.70;;;;;;5046403;28;19921;-88
2024/02/17 09:05:35;;;;;;;;;;;10.50;99.90;;;;;;5045254;28;19959;-87
2024/02/17 09:08:02;;;;;;;;;;;10.40;86.00;;;;;;5045619;28;19970;-87
2024/02/17 09:10:34;;;;;;;;;;;10.40;99.90;;;;;;5050695;28;19955;-87
2024/02/17 09:13:02;;;;;;;;;;;10.30;99.90;;;;;;5055190;28;19921;-88
2024/02/17 09:15:30;;;;;;;;;;;10.30;81.70;;;;;;5042712;28;19921;-87
2024/02/17 09:17:57;;;;;;;;;;;10.30;99.90;;;;;;5051908;28;19920;-87
2024/02/17 09:20:24;;;;;;;;;;;10.20;99.90;;;;;;5041446;28;19995;-87
2024/02/17 09:22:51;;;;;;;;;;;10.10;1.00;;;;;;5039808;28;19956;-86
2024/02/17 09:25:19;;;;;;;;;;;10.00;99.90;;;;;;5040063;28;19963;-87
2024/02/17 09:27:46;;;;;;;;;;;10.00;99.90;;;;;;5044324;28;19936;-87
2024/02/17 09:30:14;;;;;;;;;;;;;;;;;;5053222;28;20028;-87
2024/02/17 09:32:41;;;;;;;;;;;;;;;;;;5041656;28;20011;-86
2024/02/17 09:35:09;;;;;;;;;;;;;;;;;;5044004;28;20385;-87
2024/02/17 09:37:56;;;;;;;;;;;10.00;1.00;;;;;;5058778;28;19905;-85
2024/02/17 09:40:36;;;;;;;;;;;10.10;1.00;;;;;;5058929;28;19951;-87
2024/02/17 09:43:15;;;;;;;;;;;;;;;;;;5059078;28;19978;-86
2024/02/17 09:45:46;;;;;;;;;;;;;;;;;;5053291;28;19955;-87
2024/02/17 09:48:14;;;;;;;;;;;;;;;;;;5050024;28;19976;-87
2024/02/17 09:50:44;;;;;;;;;;;10.30;99.90;;;;;;5049690;28;19943;-87
2024/02/17 09:53:12;;;;;;;;;;;;;;;;;;5040948;28;19957;-86
2024/02/17 09:55:41;;;;;;;;;;;10.50;99.90;;;;;;5039881;28;19965;-87
2024/02/17 09:58:08;;;;;;;;;;;;;;;;;;5041011;28;19925;-86
2024/02/17 10:00:36;;;;;;;;;;;;;;;;;;5039937;28;19939;-87
2024/02/17 10:03:06;;;;;;;;;;;;;;;;;;5043704;28;19955;-88
2024/02/17 10:05:36;;;;;;;;;;;;;;;;;;5054415;28;19972;-86
2024/02/17 10:08:03;;;;;;;;;;;;;;;;;;5052691;28;19939;-87
2024/02/17 10:10:31;;;;;;;;;;;;;;;;;;5042970;28;19984;-86
2024/02/17 10:13:01;;;;;;;;;;;;;;;;;;5040107;28;19971;-87
2024/02/17 10:15:31;;;;;;;;;;;;;;;;;;5039111;28;19954;-86
2024/02/17 10:17:58;;;;;;;;;;;;;;;;;;5041444;28;19937;-87
2024/02/17 10:20:26;;;;;;;;;;;;;;;;;;5053623;28;19941;-87
2024/02/17 10:22:53;;;;;;;;;;;;;;;;;;5043532;28;19953;-86
2024/02/17 10:25:21;;;;;;;;;;;;;;;;;;5040681;28;20077;-87
2024/02/17 10:27:48;;;;;;;;;;;;;;;;;;5041086;28;20006;-87
2024/02/17 10:30:20;;;;;;;;;;;10.30;1.00;;;;;;5039451;28;19921;-87
2024/02/17 10:32:48;;;;;;;;;;;;;;;;;;5038925;28;19964;-87
2024/02/17 10:35:16;;;;;;;;;;;;;;;;;;5040504;28;19996;-87
2024/02/17 10:37:44;;;;;;;;;;;;;;;;;;5043493;28;19947;-86
2024/02/17 10:40:12;;;;;;;;;;;;;;;;;;5048668;28;19960;-87
2024/02/17 10:42:39;;;;;;;;;;;;;;;;;;5044744;28;20140;-87
2024/02/17 10:45:08;;;;;;;;;;;;;;;;;;5041571;28;19952;-87
2024/02/17 10:47:36;;;;;;;;;;;;;;;;;;5040223;28;19981;-87
2024/02/17 10:50:04;;;;;;;;;;;;;;;;;;5038777;28;20426;-87
2024/02/17 10:52:32;;;;;;;;;;;;;;;;;;5039893;28;19955;-87
2024/02/17 10:55:12;;;;;;;;;;;;;;;;;;5041813;28;19939;-87
2024/02/17 10:57:41;;;;;;;;;;;;;;;;;;5043846;28;20010;-87
2024/02/17 11:00:11;;;;;;;;;;;10.50;99.90;;;;;;5040508;28;19946;-87
2024/02/17 11:02:38;;;;;;;;;;;;;;;;;;5039472;28;19928;-87
2024/02/17 11:05:11;;;;;;;;;;;9.90;99.90;;;;;;5039721;28;19946;-87
2024/02/17 11:07:38;;;;;;;;;;;;;;;;;;5041799;28;19935;-87
2024/02/17 11:10:06;;;;;;;;;;;;;;;;;;5041125;28;19978;-87
2024/02/17 11:12:34;;;;;;;;;;;;;;;;;;5038134;28;19958;-87
2024/02/17 11:15:08;;;;;;;;;;;;;;;;;;5038495;28;19966;-87
2024/02/17 11:17:38;;;;;;;;;;;;;;;;;;5038751;28;19968;-87
2024/02/17 11:20:06;;;;;;;;;;;;;;;;;;5038414;28;19967;-87
2024/02/17 11:22:34;;;;;;;;;;;;;;;;;;5039623;28;19959;-87
2024/02/17 11:25:01;;;;;;;;;;;;;;;;;;5040589;28;20050;-87
2024/02/17 11:27:30;;;;;;;;;;;;;;;;;;5040571;28;20030;-87
2024/02/17 11:30:00;;;;;;;;;;;;;;;;;;5039227;28;19941;-87
2024/02/17 11:32:28;;;;;;;;;;;;;;;;;;5040297;28;20054;-87
2024/02/17 11:34:59;;;;;;;;;;;;;;;;;;5044875;28;19944;-87
2024/02/17 11:37:27;;;;;;;;;;;;;;;;;;5044810;28;19939;-86
2024/02/17 11:39:55;;;;;;;;;;;;;;;;;;5057733;28;19998;-86
2024/02/17 11:42:23;;;;;;;;;;;;;;;;;;5059722;28;19970;-85
2024/02/17 11:44:51;;;;;;;;;;;;;;;;;;5053629;28;19945;-87
2024/02/17 11:47:19;;;;;;;;;;;;;;;;;;5044179;28;19951;-87
2024/02/17 11:49:51;;;;;;;;;;;;;;;;;;5048246;28;19942;-87
2024/02/17 11:52:21;;;;;;;;;;;;;;;;;;5046250;28;19940;-87
2024/02/17 11:54:51;;;;;;;;;;;;;;;;;;5045160;28;19964;-87
2024/02/17 11:57:22;;;;;;;;;;;;;;;;;;5060941;28;20022;-85
2024/02/17 11:59:51;;;;;;;;;;;;;;;;;;5052349;28;19946;-86
2024/02/17 12:02:19;;;;;;;;;;;;;;;;;;5048948;28;19921;-86
2024/02/17 12:04:46;;;;;;;;;;;;;;;;;;5043304;28;19921;-88
2024/02/17 12:07:14;;;;;;;;;;;9.80;99.90;;;;;;5041504;28;20409;-86
2024/02/17 12:09:45;;;;;;;;;;;9.40;99.90;;;;;;5042848;28;19943;-87
2024/02/17 12:12:15;;;;;;;;;;;9.60;99.90;;;;;;5042992;28;19936;-86
2024/02/17 12:14:44;;;;;;;;;;;9.50;99.90;;;;;;5044593;28;19925;-86
2024/02/17 12:17:11;;;;;;;;;;;9.20;99.90;;;;;;5044576;28;19943;-87
2024/02/17 12:19:38;;;;;;;;;;;9.50;99.90;;;;;;5043682;28;19961;-87
2024/02/17 12:22:06;;;;;;;;;;;;;;;;;;5045064;28;19921;-87
2024/02/17 12:24:36;;;;;;;;;;;;;;;;;;5045863;28;19946;-87
2024/02/17 12:27:03;;;;;;;;;;;;;;;;;;5057957;28;19966;-87
2024/02/17 12:29:31;;;;;;;;;;;;;;;;;;5049573;28;19928;-87
2024/02/17 12:32:00;;;;;;;;;;;;;;;;;;5056830;28;19921;-87
2024/02/17 12:34:31;;;;;;;;;;;;;;;;;;5060998;28;19924;-85
2024/02/17 12:37:03;;;;;;;;;;;;;;;;;;5061100;28;19924;-86
2024/02/17 12:39:31;;;;;;;;;;;;;;;;;;5061061;28;19909;-86
2024/02/17 12:42:00;;;;;;;;;;;;;;;;;;5059707;28;19939;-87
2024/02/17 12:44:28;;;;;;;;;;;;;;;;;;5070374;22;19940;-86
2024/02/17 12:46:55;;;;;;;;;;;;;;;;;;5058119;28;19943;-87
2024/02/17 12:49:24;;;;;;;;;;;;;;;;;;5054587;28;19920;-87
2024/02/17 12:51:52;;;;;;;;;;;;;;;;;;5048339;28;19928;-88
2024/02/17 12:54:20;;;;;;;;;;;;;;;;;;5048060;28;20005;-87
2024/02/17 12:56:48;;;;;;;;;;;;;;;;;;5053347;28;19943;-88
2024/02/17 12:59:16;;;;;;;;;;;;;;;;;;5059088;28;19944;-87
2024/02/17 13:01:43;;;;;;;;;;;;;;;;;;5059838;28;19905;-87
2024/02/17 13:04:11;;;;;;;;;;;;;;;;;;5049404;28;19958;-87
2024/02/17 13:06:38;;;;;;;;;;;;;;;;;;5046031;28;19986;-87
2024/02/17 13:09:07;;;;;;;;;;;;;;;;;;5048850;28;20020;-88
2024/02/17 13:11:36;;;;;;;;;;;;;;;;;;5047054;28;20419;-90
2024/02/17 13:14:04;;;;;;;;;;;;;;;;;;5042584;28;19925;-89
2024/02/17 13:16:32;;;;;;;;;;;;;;;;;;5042476;28;19921;-87
2024/02/17 13:19:00;;;;;;;;;;;;;;;;;;5043013;28;19960;-87
2024/02/17 13:21:29;;;;;;;;;;;;;;;;;;5041396;28;19957;-88
2024/02/17 13:23:57;;;;;;;;;;;;;;;;;;5045935;28;19998;-87
2024/02/17 13:26:25;;;;;;;;;;;;;;;;;;5047023;28;20473;-87
2024/02/17 13:28:53;;;;;;;;;;;;;;;;;;5059742;28;19921;-89
2024/02/17 13:31:21;;;;;;;;;;;;;;;;;;5060250;28;19981;-87
2024/02/17 13:33:49;;;;;;;;;;;;;;;;;;5059822;28;19912;-88
2024/02/17 13:36:17;;;;;;;;;;;;;;;;;;5055436;28;19928;-88
2024/02/17 13:38:45;;;;;;;;;;;;;;;;;;5049623;28;19993;-88
2024/02/17 13:41:13;;;;;;;;;;;;;;;;;;5054818;28;20013;-88
2024/02/17 13:43:41;;;;;;;;;;;;;;;;;;5044881;28;19971;-89
2024/02/17 13:46:09;;;;;;;;;;;;;;;;;;5046192;28;20007;-87
2024/02/17 13:48:36;;;;;;;;;;;;;;;;;;5057284;28;19927;-86
2024/02/17 13:51:04;;;;;;;;;;;;;;;;;;5059760;28;19947;-88
2024/02/17 13:53:32;;;;;;;;;;;;;;;;;;5053274;28;19959;-87
2024/02/17 13:56:01;;;;;;;;;;;;;;;;;;5055466;28;19921;-87
2024/02/17 13:58:29;;;;;;;;;;;;;;;;;;5054259;28;19928;-86
2024/02/17 14:00:56;;;;;;;;;;;;;;;;;;5051729;28;20034;-88
2024/02/17 14:03:24;;;;;;;;;;;;;;;;;;5048606;28;19975;-88
2024/02/17 14:05:51;;;;;;;;;;;;;;;;;;5045463;28;20022;-88
2024/02/17 14:08:20;;;;;;;;;;;;;;;;;;5044485;28;19956;-88
2024/02/17 14:10:48;;;;;;;;;;;;;;;;;;5044756;28;19968;-89
2024/02/17 14:13:16;;;;;;;;;;;;;;;;;;5046014;28;20013;-88
2024/02/17 14:15:43;;;;;;;;;;;;;;;;;;5048611;28;19945;-88
2024/02/17 14:18:10;;;;;;;;;;;;;;;;;;5055655;28;19956;-89
2024/02/17 14:20:37;;;;;;;;;;;;;;;;;;5055815;28;19959;-89
2024/02/17 14:23:04;;;;;;;;;;;;;;;;;;5051775;28;19920;-88
2024/02/17 14:25:33;;;;;;;;;;;;;;;;;;5045728;28;19959;-88
2024/02/17 14:28:00;;;;;;;;;;;;;;;;;;5045796;28;19961;-88
2024/02/17 14:30:29;;;;;;;;;;;;;;;;;;5046053;28;19948;-86
2024/02/17 14:32:56;;;;;;;;;;;;;;;;;;5043521;28;19920;-88
2024/02/17 14:35:23;;;;;;;;;;;;;;;;;;5044385;28;20015;-87
2024/02/17 14:37:50;;;;;;;;;;;;;;;;;;5045084;28;20023;-88
2024/02/17 14:40:17;;;;;;;;;;;;;;;;;;5045775;28;20047;-87
2024/02/17 14:42:44;;;;;;;;;;;;;;;;;;5044576;28;19993;-88
2024/02/17 14:45:12;;;;;;;;;;;;;;;;;;5045238;28;19959;-87
2024/02/17 14:47:40;;;;;;;;;;;;;;;;;;5047137;28;19972;-87
2024/02/17 14:50:09;;;;;;;;;;;;;;;;;;5049645;28;19947;-87
2024/02/17 14:52:37;;;;;;;;;;;;;;;;;;5050317;28;19945;-87
2024/02/17 14:55:05;;;;;;;;;;;;;;;;;;5050281;28;19921;-87
2024/02/17 14:57:33;;;;;;;;;;;;;;;;;;5052665;28;19971;-87
2024/02/17 15:00:00;;;;;;;;;;;;;;;;;;5052107;28;19959;-88
2024/02/17 15:02:28;;;;;;;;;;;;;;;;;;5055779;28;19928;-87
2024/02/17 15:04:56;;;;;;;;;;;;;;;;;;5056837;28;19963;-87
2024/02/17 15:07:24;;;;;;;;;;;;;;;;;;5044912;28;19975;-88
2024/02/17 15:09:52;;;;;;;;;;;;;;;;;;5045390;28;20030;-87
2024/02/17 15:12:20;;;;;;;;;;;;;;;;;;5045631;28;19999;-87
2024/02/17 15:14:48;;;;;;;;;;;;;;;;;;5044847;28;19927;-87
2024/02/17 15:17:16;;;;;;;;;;;;;;;;;;5046540;28;19970;-87
2024/02/17 15:19:44;;;;;;;;;;;;;;;;;;5054979;28;19981;-88
2024/02/17 15:22:11;;;;;;;;;;;;;;;;;;5057359;28;19927;-87
2024/02/17 15:24:38;;;;;;;;;;;;;;;;;;5057836;28;19956;-87
2024/02/17 15:27:06;;;;;;;;;;;;;;;;;;5051240;28;19939;-87
2024/02/17 15:29:33;;;;;;;;;;;;;;;;;;5048155;28;19959;-87
2024/02/17 15:32:00;;;;;;;;;;;;;;;;;;5049392;28;19990;-87
2024/02/17 15:34:26;;;;;;;;;;;;;;;;;;5053422;28;20359;-88
2024/02/17 15:36:53;;;;;;;;;;;;;;;;;;5049766;28;19987;-88
2024/02/17 15:39:20;;;;;;;;;;;;;;;;;;5056046;28;19977;-87
2024/02/17 15:41:47;;;;;;;;;;;;;;;;;;5062118;28;19905;-87
2024/02/17 15:44:14;;;;;;;;;;;;;;;;;;5061888;28;19945;-87
2024/02/17 15:46:41;;;;;;;;;;;;;;;;;;5061871;28;19950;-87
2024/02/17 15:49:08;;;;;;;;;;;;;;;;;;5061852;28;19966;-86
2024/02/17 15:51:35;;;;;;;;;;;;;;;;;;5061926;28;19974;-87
2024/02/17 15:54:02;;;;;;;;;;;;;;;;;;5059283;28;19921;-89
2024/02/17 15:56:29;;;;;;;;;;;;;;;;;;5057717;28;19941;-88
2024/02/17 15:58:57;;;;;;;;;;;;;;;;;;5057035;28;19952;-87
2024/02/17 16:01:24;;;;;;;;;;;;;;;;;;5049702;28;19939;-88
2024/02/17 16:03:51;;;;;;;;;;;;;;;;;;5054402;28;19963;-88
2024/02/17 16:06:18;;;;;;;;;;;;;;;;;;5057177;28;20042;-88
2024/02/17 16:08:46;;;;;;;;;;;;;;;;;;5049758;28;19962;-87
2024/02/17 16:11:13;;;;;;;;;;;;;;;;;;5056992;28;19924;-87
2024/02/17 16:13:40;;;;;;;;;;;;;;;;;;5058307;28;19970;-88
2024/02/17 16:16:08;;;;;;;;;;;;;;;;;;5058358;28;19985;-87
2024/02/17 16:18:38;;;;;;;;;;;;;;;;;;5058240;28;19928;-88
2024/02/17 16:21:05;;;;;;;;;;;;;;;;;;5058395;28;19936;-87
2024/02/17 16:23:32;;;;;;;;;;;;;;;;;;5058923;28;19954;-85
2024/02/17 16:25:59;;;;;;;;;;;;;;;;;;5054197;28;20004;-86
2024/02/17 16:28:26;;;;;;;;;;;;;;;;;;5059830;28;19951;-86
2024/02/17 16:30:55;;;;;;;;;;;;;;;;;;5060655;28;19916;-87